sensor_id;sensor_type;location;lat;lon;timestamp;pressure;altitude;pressure_sealevel;temperature;humidity
79366;BME280;68833;53.160;17.920;2023-07-31T00:00:05;100158.69;;;18.38;70.17
79366;BME280;68833;53.160;17.920;2023-07-31T00:02:33;100164.23;;;18.34;70.38
79366;BME280;68833;53.160;17.920;2023-07-31T00:05:03;100165.23;;;18.32;70.54
79366;BME280;68833;53.160;17.920;2023-07-31T00:07:32;100166.71;;;18.31;70.48
79366;BME280;68833;53.160;17.920;2023-07-31T00:10:03;100167.45;;;18.27;70.40
79366;BME280;68833;53.160;17.920;2023-07-31T00:12:31;100166.61;;;18.22;70.72
79366;BME280;68833;53.160;17.920;2023-07-31T00:15:04;100161.55;;;18.20;70.77
79366;BME280;68833;53.160;17.920;2023-07-31T00:17:40;100163.48;;;18.17;70.69
79366;BME280;68833;53.160;17.920;2023-07-31T00:20:11;100156.84;;;18.15;70.60
79366;BME280;68833;53.160;17.920;2023-07-31T00:22:39;100156.15;;;18.15;70.95
79366;BME280;68833;53.160;17.920;2023-07-31T00:25:16;100153.13;;;18.14;71.03
79366;BME280;68833;53.160;17.920;2023-07-31T00:27:44;100154.45;;;18.13;71.05
79366;BME280;68833;53.160;17.920;2023-07-31T00:30:15;100155.45;;;18.11;71.25
79366;BME280;68833;53.160;17.920;2023-07-31T00:32:44;100158.91;;;18.09;71.43
79366;BME280;68833;53.160;17.920;2023-07-31T00:35:12;100158.55;;;18.09;71.29
79366;BME280;68833;53.160;17.920;2023-07-31T00:37:40;100155.41;;;18.08;71.31
79366;BME280;68833;53.160;17.920;2023-07-31T00:40:09;100158.38;;;18.06;71.40
79366;BME280;68833;53.160;17.920;2023-07-31T00:42:37;100155.98;;;18.03;71.45
79366;BME280;68833;53.160;17.920;2023-07-31T00:45:15;100156.10;;;18.00;71.62
79366;BME280;68833;53.160;17.920;2023-07-31T00:47:43;100155.65;;;17.99;71.84
79366;BME280;68833;53.160;17.920;2023-07-31T00:50:10;100158.59;;;17.97;71.41
79366;BME280;68833;53.160;17.920;2023-07-31T00:52:40;100160.39;;;17.97;71.38
79366;BME280;68833;53.160;17.920;2023-07-31T00:55:08;100162.04;;;17.96;71.62
79366;BME280;68833;53.160;17.920;2023-07-31T00:57:36;100171.79;;;17.92;71.66
79366;BME280;68833;53.160;17.920;2023-07-31T01:00:08;100172.33;;;17.88;71.92
79366;BME280;68833;53.160;17.920;2023-07-31T01:02:36;100171.27;;;17.84;71.62
79366;BME280;68833;53.160;17.920;2023-07-31T01:05:04;100173.16;;;17.81;72.07
79366;BME280;68833;53.160;17.920;2023-07-31T01:12:53;100177.30;;;17.77;72.26
79366;BME280;68833;53.160;17.920;2023-07-31T01:15:35;100181.08;;;17.76;72.35
79366;BME280;68833;53.160;17.920;2023-07-31T01:18:03;100183.52;;;17.73;72.18
79366;BME280;68833;53.160;17.920;2023-07-31T01:20:31;100181.56;;;17.69;72.17
79366;BME280;68833;53.160;17.920;2023-07-31T01:23:35;100188.35;;;17.64;72.12
79366;BME280;68833;53.160;17.920;2023-07-31T01:26:24;100184.73;;;17.58;72.31
79366;BME280;68833;53.160;17.920;2023-07-31T01:29:03;100184.66;;;17.56;72.45
79366;BME280;68833;53.160;17.920;2023-07-31T01:31:32;100183.27;;;17.55;72.48
79366;BME280;68833;53.160;17.920;2023-07-31T01:34:21;100184.63;;;17.57;72.56
79366;BME280;68833;53.160;17.920;2023-07-31T01:36:48;100178.96;;;17.56;72.77
79366;BME280;68833;53.160;17.920;2023-07-31T01:39:28;100177.90;;;17.56;72.72
79366;BME280;68833;53.160;17.920;2023-07-31T01:41:56;100175.94;;;17.56;72.51
79366;BME280;68833;53.160;17.920;2023-07-31T01:44:24;100171.71;;;17.55;72.35
79366;BME280;68833;53.160;17.920;2023-07-31T01:46:53;100170.91;;;17.54;72.15
79366;BME280;68833;53.160;17.920;2023-07-31T01:49:58;100171.05;;;17.50;72.39
79366;BME280;68833;53.160;17.920;2023-07-31T01:52:26;100173.80;;;17.49;72.56
79366;BME280;68833;53.160;17.920;2023-07-31T01:54:52;100177.08;;;17.47;72.66
79366;BME280;68833;53.160;17.920;2023-07-31T01:57:23;100174.76;;;17.47;72.59
79366;BME280;68833;53.160;17.920;2023-07-31T01:59:50;100179.69;;;17.48;72.54
79366;BME280;68833;53.160;17.920;2023-07-31T02:02:24;100175.77;;;17.48;72.90
79366;BME280;68833;53.160;17.920;2023-07-31T02:04:56;100170.33;;;17.47;72.46
79366;BME280;68833;53.160;17.920;2023-07-31T02:07:24;100172.42;;;17.44;72.66
79366;BME280;68833;53.160;17.920;2023-07-31T02:09:52;100173.54;;;17.43;72.59
79366;BME280;68833;53.160;17.920;2023-07-31T02:12:20;100170.87;;;17.43;72.68
79366;BME280;68833;53.160;17.920;2023-07-31T02:14:48;100177.54;;;17.44;72.70
79366;BME280;68833;53.160;17.920;2023-07-31T02:17:15;100179.04;;;17.43;72.54
79366;BME280;68833;53.160;17.920;2023-07-31T02:19:43;100183.55;;;17.41;72.60
79366;BME280;68833;53.160;17.920;2023-07-31T02:22:20;100185.39;;;17.40;72.80
79366;BME280;68833;53.160;17.920;2023-07-31T02:24:49;100190.61;;;17.38;72.78
79366;BME280;68833;53.160;17.920;2023-07-31T02:27:27;100188.67;;;17.38;72.62
79366;BME280;68833;53.160;17.920;2023-07-31T02:29:59;100187.13;;;17.36;72.57
79366;BME280;68833;53.160;17.920;2023-07-31T02:32:46;100188.27;;;17.35;72.25
79366;BME280;68833;53.160;17.920;2023-07-31T02:35:18;100188.33;;;17.29;72.48
79366;BME280;68833;53.160;17.920;2023-07-31T02:37:48;100192.36;;;17.27;72.62
79366;BME280;68833;53.160;17.920;2023-07-31T02:40:36;100191.77;;;17.24;72.59
79366;BME280;68833;53.160;17.920;2023-07-31T02:43:04;100196.66;;;17.22;72.48
79366;BME280;68833;53.160;17.920;2023-07-31T02:45:37;100195.54;;;17.19;72.70
79366;BME280;68833;53.160;17.920;2023-07-31T02:48:05;100193.71;;;17.17;72.52
79366;BME280;68833;53.160;17.920;2023-07-31T02:50:50;100193.65;;;17.14;72.83
79366;BME280;68833;53.160;17.920;2023-07-31T02:53:27;100188.48;;;17.10;72.77
79366;BME280;68833;53.160;17.920;2023-07-31T02:55:55;100188.56;;;17.09;72.55
79366;BME280;68833;53.160;17.920;2023-07-31T02:58:33;100188.37;;;17.09;72.75
79366;BME280;68833;53.160;17.920;2023-07-31T03:01:01;100182.67;;;17.09;72.77
79366;BME280;68833;53.160;17.920;2023-07-31T03:03:28;100184.69;;;17.08;73.04
79366;BME280;68833;53.160;17.920;2023-07-31T03:05:56;100180.00;;;17.05;72.86
79366;BME280;68833;53.160;17.920;2023-07-31T03:08:24;100179.75;;;17.07;72.95
79366;BME280;68833;53.160;17.920;2023-07-31T03:10:52;100185.02;;;17.08;73.15
79366;BME280;68833;53.160;17.920;2023-07-31T03:13:19;100178.30;;;17.08;73.12
79366;BME280;68833;53.160;17.920;2023-07-31T03:15:45;100178.91;;;17.06;72.96
79366;BME280;68833;53.160;17.920;2023-07-31T03:18:13;100186.67;;;17.03;72.90
79366;BME280;68833;53.160;17.920;2023-07-31T03:20:43;100192.61;;;17.01;73.33
79366;BME280;68833;53.160;17.920;2023-07-31T03:23:12;100194.47;;;16.99;73.02
79366;BME280;68833;53.160;17.920;2023-07-31T03:25:56;100202.72;;;16.97;73.14
79366;BME280;68833;53.160;17.920;2023-07-31T03:28:28;100204.14;;;16.93;72.94
79366;BME280;68833;53.160;17.920;2023-07-31T03:31:10;100195.55;;;16.86;73.01
79366;BME280;68833;53.160;17.920;2023-07-31T03:33:37;100201.67;;;16.88;73.03
79366;BME280;68833;53.160;17.920;2023-07-31T03:36:49;100209.44;;;16.90;73.12
79366;BME280;68833;53.160;17.920;2023-07-31T03:39:18;100210.05;;;16.92;73.04
79366;BME280;68833;53.160;17.920;2023-07-31T03:41:44;100213.77;;;16.92;72.99
79366;BME280;68833;53.160;17.920;2023-07-31T03:44:11;100210.76;;;16.92;73.13
79366;BME280;68833;53.160;17.920;2023-07-31T03:46:40;100208.05;;;16.88;73.00
79366;BME280;68833;53.160;17.920;2023-07-31T03:49:11;100212.58;;;16.86;73.11
79366;BME280;68833;53.160;17.920;2023-07-31T03:51:40;100219.95;;;16.83;72.92
79366;BME280;68833;53.160;17.920;2023-07-31T03:54:08;100219.83;;;16.82;73.00
79366;BME280;68833;53.160;17.920;2023-07-31T03:56:56;100218.52;;;16.79;72.78
79366;BME280;68833;53.160;17.920;2023-07-31T03:59:27;100214.88;;;16.73;73.25
79366;BME280;68833;53.160;17.920;2023-07-31T04:01:56;100220.36;;;16.74;72.79
79366;BME280;68833;53.160;17.920;2023-07-31T04:04:23;100220.77;;;16.73;73.22
79366;BME280;68833;53.160;17.920;2023-07-31T04:06:50;100219.70;;;16.72;73.39
79366;BME280;68833;53.160;17.920;2023-07-31T04:09:22;100221.02;;;16.75;73.06
79366;BME280;68833;53.160;17.920;2023-07-31T04:12:00;100219.36;;;16.76;72.94
79366;BME280;68833;53.160;17.920;2023-07-31T04:14:28;100216.86;;;16.77;73.20
79366;BME280;68833;53.160;17.920;2023-07-31T04:16:56;100212.95;;;16.77;73.40
79366;BME280;68833;53.160;17.920;2023-07-31T04:19:27;100215.60;;;16.77;73.19
79366;BME280;68833;53.160;17.920;2023-07-31T04:21:56;100209.80;;;16.76;73.06
79366;BME280;68833;53.160;17.920;2023-07-31T04:24:23;100208.02;;;16.76;73.26
79366;BME280;68833;53.160;17.920;2023-07-31T04:26:53;100204.30;;;16.75;73.03
79366;BME280;68833;53.160;17.920;2023-07-31T04:29:20;100203.28;;;16.75;72.99
79366;BME280;68833;53.160;17.920;2023-07-31T04:31:47;100203.20;;;16.73;72.89
79366;BME280;68833;53.160;17.920;2023-07-31T04:34:14;100201.70;;;16.70;72.98
79366;BME280;68833;53.160;17.920;2023-07-31T04:36:40;100205.55;;;16.67;72.78
79366;BME280;68833;53.160;17.920;2023-07-31T04:39:06;100208.94;;;16.66;73.15
79366;BME280;68833;53.160;17.920;2023-07-31T04:41:33;100210.70;;;16.67;73.11
79366;BME280;68833;53.160;17.920;2023-07-31T04:43:59;100208.94;;;16.67;72.93
79366;BME280;68833;53.160;17.920;2023-07-31T04:46:25;100207.20;;;16.65;72.78
79366;BME280;68833;53.160;17.920;2023-07-31T04:48:51;100208.88;;;16.64;72.88
79366;BME280;68833;53.160;17.920;2023-07-31T04:51:18;100211.05;;;16.63;72.92
79366;BME280;68833;53.160;17.920;2023-07-31T04:53:44;100217.65;;;16.62;72.71
79366;BME280;68833;53.160;17.920;2023-07-31T04:56:10;100217.98;;;16.62;72.78
79366;BME280;68833;53.160;17.920;2023-07-31T04:58:36;100217.52;;;16.60;73.13
79366;BME280;68833;53.160;17.920;2023-07-31T05:01:03;100221.40;;;16.61;73.23
79366;BME280;68833;53.160;17.920;2023-07-31T05:03:29;100223.39;;;16.60;72.91
79366;BME280;68833;53.160;17.920;2023-07-31T05:05:55;100219.92;;;16.59;73.26
79366;BME280;68833;53.160;17.920;2023-07-31T05:08:21;100221.33;;;16.55;72.99
79366;BME280;68833;53.160;17.920;2023-07-31T05:10:48;100219.88;;;16.51;72.63
79366;BME280;68833;53.160;17.920;2023-07-31T05:13:14;100218.98;;;16.51;73.06
79366;BME280;68833;53.160;17.920;2023-07-31T05:15:41;100217.17;;;16.51;73.11
79366;BME280;68833;53.160;17.920;2023-07-31T05:18:07;100220.50;;;16.53;72.98
79366;BME280;68833;53.160;17.920;2023-07-31T05:20:34;100220.83;;;16.54;72.61
79366;BME280;68833;53.160;17.920;2023-07-31T05:23:00;100217.06;;;16.55;72.89
79366;BME280;68833;53.160;17.920;2023-07-31T05:25:26;100218.23;;;16.57;72.93
79366;BME280;68833;53.160;17.920;2023-07-31T05:27:52;100222.16;;;16.60;73.05
79366;BME280;68833;53.160;17.920;2023-07-31T05:30:19;100222.17;;;16.64;73.00
79366;BME280;68833;53.160;17.920;2023-07-31T05:32:45;100219.95;;;16.66;72.94
79366;BME280;68833;53.160;17.920;2023-07-31T05:35:11;100219.13;;;16.69;72.75
79366;BME280;68833;53.160;17.920;2023-07-31T05:37:38;100219.16;;;16.68;72.64
79366;BME280;68833;53.160;17.920;2023-07-31T05:40:05;100210.02;;;16.66;72.63
79366;BME280;68833;53.160;17.920;2023-07-31T05:42:31;100209.59;;;16.68;72.85
79366;BME280;68833;53.160;17.920;2023-07-31T05:44:57;100213.33;;;16.72;72.64
79366;BME280;68833;53.160;17.920;2023-07-31T05:47:23;100213.88;;;16.72;72.06
79366;BME280;68833;53.160;17.920;2023-07-31T05:49:50;100218.71;;;16.75;72.47
79366;BME280;68833;53.160;17.920;2023-07-31T05:52:19;100220.77;;;16.76;72.84
79366;BME280;68833;53.160;17.920;2023-07-31T05:54:45;100220.67;;;16.79;72.53
79366;BME280;68833;53.160;17.920;2023-07-31T05:57:12;100221.43;;;16.81;72.43
79366;BME280;68833;53.160;17.920;2023-07-31T05:59:38;100221.13;;;16.90;72.36
79366;BME280;68833;53.160;17.920;2023-07-31T06:02:04;100221.73;;;16.96;72.04
79366;BME280;68833;53.160;17.920;2023-07-31T06:04:32;100219.27;;;17.04;71.92
79366;BME280;68833;53.160;17.920;2023-07-31T06:06:58;100219.10;;;17.12;71.81
79366;BME280;68833;53.160;17.920;2023-07-31T06:09:24;100220.19;;;17.19;71.86
79366;BME280;68833;53.160;17.920;2023-07-31T06:11:51;100219.83;;;17.24;71.58
79366;BME280;68833;53.160;17.920;2023-07-31T06:14:18;100219.85;;;17.27;71.39
79366;BME280;68833;53.160;17.920;2023-07-31T06:16:44;100223.00;;;17.32;71.54
79366;BME280;68833;53.160;17.920;2023-07-31T06:19:10;100222.38;;;17.38;71.29
79366;BME280;68833;53.160;17.920;2023-07-31T06:21:37;100220.52;;;17.44;71.18
79366;BME280;68833;53.160;17.920;2023-07-31T06:24:05;100217.55;;;17.51;71.19
79366;BME280;68833;53.160;17.920;2023-07-31T06:26:31;100219.28;;;17.56;71.16
79366;BME280;68833;53.160;17.920;2023-07-31T06:28:57;100217.03;;;17.62;70.77
79366;BME280;68833;53.160;17.920;2023-07-31T06:31:24;100212.09;;;17.69;70.45
79366;BME280;68833;53.160;17.920;2023-07-31T06:33:51;100215.23;;;17.75;70.27
79366;BME280;68833;53.160;17.920;2023-07-31T06:36:18;100214.02;;;17.78;69.68
79366;BME280;68833;53.160;17.920;2023-07-31T06:38:45;100215.64;;;17.81;69.90
79366;BME280;68833;53.160;17.920;2023-07-31T06:41:11;100219.05;;;17.84;69.16
79366;BME280;68833;53.160;17.920;2023-07-31T06:43:37;100216.15;;;17.85;69.32
79366;BME280;68833;53.160;17.920;2023-07-31T06:46:07;100216.92;;;17.88;68.89
79366;BME280;68833;53.160;17.920;2023-07-31T06:48:33;100212.80;;;17.89;68.98
79366;BME280;68833;53.160;17.920;2023-07-31T06:51:03;100217.89;;;17.94;69.13
79366;BME280;68833;53.160;17.920;2023-07-31T06:53:29;100221.81;;;17.98;69.17
79366;BME280;68833;53.160;17.920;2023-07-31T06:55:56;100216.96;;;18.02;69.47
79366;BME280;68833;53.160;17.920;2023-07-31T06:58:22;100219.30;;;18.06;68.94
79366;BME280;68833;53.160;17.920;2023-07-31T07:00:48;100219.20;;;18.08;68.73
79366;BME280;68833;53.160;17.920;2023-07-31T07:03:18;100218.06;;;18.09;68.11
79366;BME280;68833;53.160;17.920;2023-07-31T07:05:45;100216.68;;;18.09;67.96
79366;BME280;68833;53.160;17.920;2023-07-31T07:08:11;100214.22;;;18.08;67.96
79366;BME280;68833;53.160;17.920;2023-07-31T07:10:37;100213.13;;;18.09;67.71
79366;BME280;68833;53.160;17.920;2023-07-31T07:13:03;100209.83;;;18.11;68.14
79366;BME280;68833;53.160;17.920;2023-07-31T07:15:30;100212.04;;;18.13;67.75
79366;BME280;68833;53.160;17.920;2023-07-31T07:17:57;100215.79;;;18.16;67.98
79366;BME280;68833;53.160;17.920;2023-07-31T07:20:23;100217.89;;;18.17;67.27
79366;BME280;68833;53.160;17.920;2023-07-31T07:22:49;100220.23;;;18.16;67.16
79366;BME280;68833;53.160;17.920;2023-07-31T07:25:15;100221.06;;;18.17;67.39
79366;BME280;68833;53.160;17.920;2023-07-31T07:27:42;100218.59;;;18.17;67.09
79366;BME280;68833;53.160;17.920;2023-07-31T07:30:09;100215.13;;;18.15;67.00
79366;BME280;68833;53.160;17.920;2023-07-31T07:32:35;100215.02;;;18.18;66.95
79366;BME280;68833;53.160;17.920;2023-07-31T07:35:01;100218.95;;;18.20;66.45
79366;BME280;68833;53.160;17.920;2023-07-31T07:37:28;100225.92;;;18.20;66.30
79366;BME280;68833;53.160;17.920;2023-07-31T07:39:54;100227.02;;;18.19;66.07
79366;BME280;68833;53.160;17.920;2023-07-31T07:42:20;100217.24;;;18.19;66.45
79366;BME280;68833;53.160;17.920;2023-07-31T07:44:47;100217.25;;;18.19;66.19
79366;BME280;68833;53.160;17.920;2023-07-31T07:47:13;100213.29;;;18.20;66.53
79366;BME280;68833;53.160;17.920;2023-07-31T07:49:39;100221.77;;;18.21;66.27
79366;BME280;68833;53.160;17.920;2023-07-31T07:52:06;100224.62;;;18.21;65.90
79366;BME280;68833;53.160;17.920;2023-07-31T07:54:32;100225.20;;;18.20;66.08
79366;BME280;68833;53.160;17.920;2023-07-31T07:56:58;100224.77;;;18.22;65.98
79366;BME280;68833;53.160;17.920;2023-07-31T07:59:25;100219.41;;;18.23;65.75
79366;BME280;68833;53.160;17.920;2023-07-31T08:01:51;100214.02;;;18.23;65.68
79366;BME280;68833;53.160;17.920;2023-07-31T08:04:17;100218.57;;;18.25;65.90
79366;BME280;68833;53.160;17.920;2023-07-31T08:06:43;100220.47;;;18.26;66.22
79366;BME280;68833;53.160;17.920;2023-07-31T08:09:10;100211.70;;;18.28;65.19
79366;BME280;68833;53.160;17.920;2023-07-31T08:11:36;100210.63;;;18.28;65.26
79366;BME280;68833;53.160;17.920;2023-07-31T08:14:02;100208.10;;;18.28;64.93
79366;BME280;68833;53.160;17.920;2023-07-31T08:16:28;100210.27;;;18.27;65.05
79366;BME280;68833;53.160;17.920;2023-07-31T08:18:55;100216.80;;;18.28;64.67
79366;BME280;68833;53.160;17.920;2023-07-31T08:21:21;100212.56;;;18.28;64.64
79366;BME280;68833;53.160;17.920;2023-07-31T08:23:48;100211.61;;;18.29;64.94
79366;BME280;68833;53.160;17.920;2023-07-31T08:26:20;100209.70;;;18.32;65.12
79366;BME280;68833;53.160;17.920;2023-07-31T08:28:47;100212.33;;;18.36;64.43
79366;BME280;68833;53.160;17.920;2023-07-31T08:31:13;100212.33;;;18.40;64.41
79366;BME280;68833;53.160;17.920;2023-07-31T08:33:40;100208.94;;;18.44;64.72
79366;BME280;68833;53.160;17.920;2023-07-31T08:36:06;100211.44;;;18.47;64.34
79366;BME280;68833;53.160;17.920;2023-07-31T08:38:33;100211.02;;;18.49;64.14
79366;BME280;68833;53.160;17.920;2023-07-31T08:40:59;100207.53;;;18.51;64.19
79366;BME280;68833;53.160;17.920;2023-07-31T08:43:26;100204.20;;;18.53;64.18
79366;BME280;68833;53.160;17.920;2023-07-31T08:45:53;100201.19;;;18.57;64.10
79366;BME280;68833;53.160;17.920;2023-07-31T08:48:21;100197.63;;;18.60;63.83
79366;BME280;68833;53.160;17.920;2023-07-31T08:50:48;100196.52;;;18.65;64.01
79366;BME280;68833;53.160;17.920;2023-07-31T08:53:14;100201.59;;;18.70;63.60
79366;BME280;68833;53.160;17.920;2023-07-31T08:55:43;100193.59;;;18.74;63.17
79366;BME280;68833;53.160;17.920;2023-07-31T08:58:12;100192.88;;;18.77;63.25
79366;BME280;68833;53.160;17.920;2023-07-31T09:00:39;100194.11;;;18.81;62.90
79366;BME280;68833;53.160;17.920;2023-07-31T09:03:13;100192.86;;;18.84;63.30
79366;BME280;68833;53.160;17.920;2023-07-31T09:05:43;100186.48;;;18.88;63.39
79366;BME280;68833;53.160;17.920;2023-07-31T09:08:11;100181.36;;;18.91;63.58
79366;BME280;68833;53.160;17.920;2023-07-31T09:10:42;100179.99;;;18.93;63.50
79366;BME280;68833;53.160;17.920;2023-07-31T09:13:09;100179.19;;;18.95;63.42
79366;BME280;68833;53.160;17.920;2023-07-31T09:15:36;100174.80;;;18.97;63.49
79366;BME280;68833;53.160;17.920;2023-07-31T09:18:04;100168.37;;;19.00;63.93
79366;BME280;68833;53.160;17.920;2023-07-31T09:20:32;100171.45;;;19.07;63.45
79366;BME280;68833;53.160;17.920;2023-07-31T09:23:10;100171.85;;;19.13;63.32
79366;BME280;68833;53.160;17.920;2023-07-31T09:25:38;100169.25;;;19.14;62.65
79366;BME280;68833;53.160;17.920;2023-07-31T09:28:07;100164.23;;;19.15;62.66
79366;BME280;68833;53.160;17.920;2023-07-31T09:30:49;100158.42;;;19.14;62.98
79366;BME280;68833;53.160;17.920;2023-07-31T09:33:17;100160.68;;;19.12;62.76
79366;BME280;68833;53.160;17.920;2023-07-31T09:35:44;100154.75;;;19.09;63.01
79366;BME280;68833;53.160;17.920;2023-07-31T09:38:13;100157.88;;;19.08;62.85
79366;BME280;68833;53.160;17.920;2023-07-31T09:40:49;100150.76;;;19.08;63.19
79366;BME280;68833;53.160;17.920;2023-07-31T09:43:20;100155.42;;;19.10;63.10
79366;BME280;68833;53.160;17.920;2023-07-31T09:45:47;100150.21;;;19.11;62.83
79366;BME280;68833;53.160;17.920;2023-07-31T09:48:16;100145.66;;;19.16;62.88
79366;BME280;68833;53.160;17.920;2023-07-31T09:50:44;100141.15;;;19.20;62.77
79366;BME280;68833;53.160;17.920;2023-07-31T09:53:11;100138.35;;;19.23;62.75
79366;BME280;68833;53.160;17.920;2023-07-31T09:55:39;100144.19;;;19.24;62.72
79366;BME280;68833;53.160;17.920;2023-07-31T09:58:07;100148.69;;;19.23;62.91
79366;BME280;68833;53.160;17.920;2023-07-31T10:03:38;100159.32;;;19.17;64.53
79366;BME280;68833;53.160;17.920;2023-07-31T10:06:07;100160.63;;;19.06;65.03
79366;BME280;68833;53.160;17.920;2023-07-31T10:08:36;100142.10;;;19.03;65.88
79366;BME280;68833;53.160;17.920;2023-07-31T10:11:05;100141.36;;;18.96;66.16
79366;BME280;68833;53.160;17.920;2023-07-31T10:13:33;100142.88;;;18.91;66.93
79366;BME280;68833;53.160;17.920;2023-07-31T10:16:01;100139.93;;;18.86;67.32
79366;BME280;68833;53.160;17.920;2023-07-31T10:18:29;100142.71;;;18.80;67.75
79366;BME280;68833;53.160;17.920;2023-07-31T10:20:57;100136.29;;;18.77;68.38
79366;BME280;68833;53.160;17.920;2023-07-31T10:23:24;100139.48;;;18.74;68.59
79366;BME280;68833;53.160;17.920;2023-07-31T10:25:55;100135.61;;;18.69;68.75
79366;BME280;68833;53.160;17.920;2023-07-31T10:28:24;100132.69;;;18.67;68.98
79366;BME280;68833;53.160;17.920;2023-07-31T10:30:51;100119.85;;;18.65;68.73
79366;BME280;68833;53.160;17.920;2023-07-31T10:33:18;100115.36;;;18.66;69.20
79366;BME280;68833;53.160;17.920;2023-07-31T10:35:47;100113.38;;;18.69;69.44
79366;BME280;68833;53.160;17.920;2023-07-31T10:38:15;100105.64;;;18.74;69.85
79366;BME280;68833;53.160;17.920;2023-07-31T10:40:42;100097.64;;;18.84;69.71
79366;BME280;68833;53.160;17.920;2023-07-31T10:43:23;100091.87;;;18.90;69.98
79366;BME280;68833;53.160;17.920;2023-07-31T10:45:52;100082.66;;;18.96;70.38
79366;BME280;68833;53.160;17.920;2023-07-31T10:48:19;100077.55;;;19.01;70.48
79366;BME280;68833;53.160;17.920;2023-07-31T10:53:26;100075.36;;;19.16;70.75
79366;BME280;68833;53.160;17.920;2023-07-31T10:55:58;100073.54;;;19.23;70.31
79366;BME280;68833;53.160;17.920;2023-07-31T10:58:26;100070.23;;;19.28;70.16
79366;BME280;68833;53.160;17.920;2023-07-31T11:00:57;100067.62;;;19.30;69.39
79366;BME280;68833;53.160;17.920;2023-07-31T11:03:26;100063.25;;;19.29;69.31
79366;BME280;68833;53.160;17.920;2023-07-31T11:15:59;100062.10;;;19.24;68.53
79366;BME280;68833;53.160;17.920;2023-07-31T11:18:27;100056.77;;;19.20;67.68
79366;BME280;68833;53.160;17.920;2023-07-31T11:20:54;100063.42;;;19.13;67.03
79366;BME280;68833;53.160;17.920;2023-07-31T11:23:23;100062.23;;;19.05;66.87
79366;BME280;68833;53.160;17.920;2023-07-31T11:25:50;100067.59;;;18.98;66.87
79366;BME280;68833;53.160;17.920;2023-07-31T11:28:18;100079.63;;;18.93;66.76
79366;BME280;68833;53.160;17.920;2023-07-31T11:30:46;100086.52;;;18.86;67.07
79366;BME280;68833;53.160;17.920;2023-07-31T11:33:13;100090.15;;;18.78;67.36
79366;BME280;68833;53.160;17.920;2023-07-31T11:35:49;100089.45;;;18.68;68.36
79366;BME280;68833;53.160;17.920;2023-07-31T11:38:32;100091.96;;;18.57;69.09
79366;BME280;68833;53.160;17.920;2023-07-31T11:41:03;100089.30;;;18.46;69.74
79366;BME280;68833;53.160;17.920;2023-07-31T11:43:31;100087.27;;;18.37;70.20
79366;BME280;68833;53.160;17.920;2023-07-31T11:46:00;100081.64;;;18.36;70.73
79366;BME280;68833;53.160;17.920;2023-07-31T11:48:32;100077.73;;;18.43;70.90
79366;BME280;68833;53.160;17.920;2023-07-31T11:51:04;100081.05;;;18.51;71.31
79366;BME280;68833;53.160;17.920;2023-07-31T11:53:47;100073.66;;;18.57;71.16
79366;BME280;68833;53.160;17.920;2023-07-31T11:56:19;100076.98;;;18.61;70.83
79366;BME280;68833;53.160;17.920;2023-07-31T11:58:49;100075.47;;;18.66;70.73
79366;BME280;68833;53.160;17.920;2023-07-31T12:01:19;100076.74;;;18.72;70.39
79366;BME280;68833;53.160;17.920;2023-07-31T12:03:48;100077.42;;;18.77;70.08
79366;BME280;68833;53.160;17.920;2023-07-31T12:06:16;100077.80;;;18.83;70.55
79366;BME280;68833;53.160;17.920;2023-07-31T12:08:43;100074.87;;;18.88;69.96
79366;BME280;68833;53.160;17.920;2023-07-31T12:11:10;100072.72;;;18.92;69.95
79366;BME280;68833;53.160;17.920;2023-07-31T12:13:37;100068.77;;;18.96;69.69
79366;BME280;68833;53.160;17.920;2023-07-31T12:16:05;100072.85;;;18.96;69.45
79366;BME280;68833;53.160;17.920;2023-07-31T12:18:36;100072.56;;;18.95;69.43
79366;BME280;68833;53.160;17.920;2023-07-31T12:21:06;100067.66;;;18.97;69.31
79366;BME280;68833;53.160;17.920;2023-07-31T12:23:35;100061.09;;;19.00;69.65
79366;BME280;68833;53.160;17.920;2023-07-31T12:26:05;100057.20;;;19.02;69.16
79366;BME280;68833;53.160;17.920;2023-07-31T12:28:44;100054.31;;;19.03;69.44
79366;BME280;68833;53.160;17.920;2023-07-31T12:31:13;100050.40;;;19.03;69.16
79366;BME280;68833;53.160;17.920;2023-07-31T12:33:41;100049.21;;;19.02;68.50
79366;BME280;68833;53.160;17.920;2023-07-31T12:36:30;100049.89;;;19.00;68.65
79366;BME280;68833;53.160;17.920;2023-07-31T12:38:59;100045.38;;;18.97;68.86
79366;BME280;68833;53.160;17.920;2023-07-31T12:41:26;100044.84;;;18.94;68.82
79366;BME280;68833;53.160;17.920;2023-07-31T12:43:53;100043.02;;;18.92;68.99
79366;BME280;68833;53.160;17.920;2023-07-31T12:46:20;100043.42;;;18.91;69.21
79366;BME280;68833;53.160;17.920;2023-07-31T12:48:47;100046.23;;;18.88;68.91
79366;BME280;68833;53.160;17.920;2023-07-31T12:51:14;100043.12;;;18.83;69.37
79366;BME280;68833;53.160;17.920;2023-07-31T12:53:41;100040.71;;;18.78;69.70
79366;BME280;68833;53.160;17.920;2023-07-31T12:56:08;100041.33;;;18.73;69.77
79366;BME280;68833;53.160;17.920;2023-07-31T12:58:35;100039.99;;;18.71;69.91
79366;BME280;68833;53.160;17.920;2023-07-31T13:01:02;100036.04;;;18.68;69.87
79366;BME280;68833;53.160;17.920;2023-07-31T13:03:29;100037.94;;;18.66;69.78
79366;BME280;68833;53.160;17.920;2023-07-31T13:05:56;100040.39;;;18.63;70.05
79366;BME280;68833;53.160;17.920;2023-07-31T13:08:23;100037.90;;;18.63;70.01
79366;BME280;68833;53.160;17.920;2023-07-31T13:10:50;100034.64;;;18.65;70.13